Duke Field,(Eglin Af Aux Nr 3) Airport
KEGI : now visible

Airfield :











YOU CAN JOIN US ON...

 
LOGIN :

Register | Disclaimer

   EN    FR    IT 

 









Legend :    VFR   Marginal VFR   IFR   Intensive IFR   Very Intensive IFR
Visi :
Ceiling :
>= 8 km
>= 3000ft
5 to 8 km
1000 to 3000 ft
1500m to 5 km
500 to 1000 ft
800 to 1500m
200 to 500 ft
< 800m
< 200 ft
Symbols :   Thunderstorms  Fog  Heavy snow  Heavy precipitations  Wind > 20 kt






- Airport Elevation : 191 ft


KEGI - Duke Field,(Eglin Af Aux Nr 3)

CURRENT METAR :
  • 110256Z AUTO 15005KT 10SM FEW055 21/20 A3005 RMK AO2 SLP175 T02070197 51019 $

EXPIRED METARs :
  • 110220Z AUTO 17003KT 10SM SCT028 BKN055 21/20 A3005 RMK AO2 SLP175 $
  • 110156Z AUTO 00000KT 10SM OVC027 21/20 A3004 RMK AO2 SLP172 T02130203 $
  • 110130Z AUTO 14003KT 10SM BKN028 21/20 A3003 RMK AO2 CIG 028V110 BKN V FEW SLP169 $
  • 110056Z AUTO 00000KT 10SM BKN110 22/20 A3002 RMK AO2 SLP165 T02150199 $

TAF TAF KEGI
Valid from the 11 at 01:00 until the 12 at 07:00 UTC


110100Z 1101/1207 14009KT 9999 FEW100 FEW120 QNH2998INS
BECMG 1105/1106 17005KT 4800 BR BKN012 BKN060 QNH2999INS
BECMG 1113/1114 17007KT 9999 NSW FEW015 BKN025 BKN120 QNH3000INS
BECMG 1122/1123 20010KT 9999 VCTS SCT015CB BKN020 BKN120 QNH2998INS
BECMG 1201/1202 24010G15KT 8000 -TSRA SCT010CB BKN020 QNH2996INS TX24/1120Z TN21/1111Z
KZJX FIR / North America



MET'MAP, your aeronautical weather chart ! - Copyright ORBIFLY December 2007 - Disclaimer

ORBIFLY MET'MAP TEAM :

Programming & Development : Alexandra Zaïnal
Concept & original design : Baudouin d'Aumeries
Assistance for programming : Marc-Olivier Méhu
Technical & hardware support : Manuel Goepfert

Contact : metmap@orbifly.com




SOURCES & CREDITS :

   NOAA       Earth
Advisory